sensor_id;sensor_type;location;lat;lon;timestamp;temperature;humidity
15705;DHT22;7952;48.396;12.806;2023-11-19T00:00:31;7.40;59.30
15705;DHT22;7952;48.396;12.806;2023-11-19T00:02:57;7.30;59.20
15705;DHT22;7952;48.396;12.806;2023-11-19T00:05:23;7.30;59.30
15705;DHT22;7952;48.396;12.806;2023-11-19T00:07:48;7.30;59.30
15705;DHT22;7952;48.396;12.806;2023-11-19T00:10:16;7.30;59.30
15705;DHT22;7952;48.396;12.806;2023-11-19T00:12:47;7.30;59.30
15705;DHT22;7952;48.396;12.806;2023-11-19T00:15:13;7.30;59.30
15705;DHT22;7952;48.396;12.806;2023-11-19T00:17:40;7.30;59.30
15705;DHT22;7952;48.396;12.806;2023-11-19T00:20:08;7.30;59.40
15705;DHT22;7952;48.396;12.806;2023-11-19T00:22:34;7.30;59.40
15705;DHT22;7952;48.396;12.806;2023-11-19T00:24:59;7.30;59.40
15705;DHT22;7952;48.396;12.806;2023-11-19T00:27:25;7.30;59.40
15705;DHT22;7952;48.396;12.806;2023-11-19T00:29:51;7.30;59.40
15705;DHT22;7952;48.396;12.806;2023-11-19T00:32:17;7.30;59.40
15705;DHT22;7952;48.396;12.806;2023-11-19T00:34:46;7.30;59.40
15705;DHT22;7952;48.396;12.806;2023-11-19T00:37:13;7.30;59.40
15705;DHT22;7952;48.396;12.806;2023-11-19T00:39:43;7.30;59.40
15705;DHT22;7952;48.396;12.806;2023-11-19T00:42:10;7.30;59.40
15705;DHT22;7952;48.396;12.806;2023-11-19T00:44:36;7.30;59.40
15705;DHT22;7952;48.396;12.806;2023-11-19T00:47:02;7.30;59.40
15705;DHT22;7952;48.396;12.806;2023-11-19T00:49:28;7.40;59.40
15705;DHT22;7952;48.396;12.806;2023-11-19T00:51:54;7.30;59.40
15705;DHT22;7952;48.396;12.806;2023-11-19T00:54:19;7.30;59.40
15705;DHT22;7952;48.396;12.806;2023-11-19T00:56:45;7.40;59.40
15705;DHT22;7952;48.396;12.806;2023-11-19T00:59:11;7.40;59.40
15705;DHT22;7952;48.396;12.806;2023-11-19T01:01:37;7.40;59.40
15705;DHT22;7952;48.396;12.806;2023-11-19T01:04:03;7.40;59.40
15705;DHT22;7952;48.396;12.806;2023-11-19T01:06:32;7.40;59.40
15705;DHT22;7952;48.396;12.806;2023-11-19T01:08:58;7.40;59.40
15705;DHT22;7952;48.396;12.806;2023-11-19T01:11:25;7.40;59.40
15705;DHT22;7952;48.396;12.806;2023-11-19T01:13:51;7.40;59.40
15705;DHT22;7952;48.396;12.806;2023-11-19T01:16:18;7.40;59.40
15705;DHT22;7952;48.396;12.806;2023-11-19T01:18:46;7.40;59.40
15705;DHT22;7952;48.396;12.806;2023-11-19T01:21:12;7.40;59.40
15705;DHT22;7952;48.396;12.806;2023-11-19T01:23:40;7.40;59.40
15705;DHT22;7952;48.396;12.806;2023-11-19T01:26:08;7.40;59.40
15705;DHT22;7952;48.396;12.806;2023-11-19T01:28:36;7.40;59.40
15705;DHT22;7952;48.396;12.806;2023-11-19T01:31:01;7.40;59.40
15705;DHT22;7952;48.396;12.806;2023-11-19T01:33:29;7.40;59.40
15705;DHT22;7952;48.396;12.806;2023-11-19T01:35:55;7.40;59.40
15705;DHT22;7952;48.396;12.806;2023-11-19T01:38:24;7.40;59.40
15705;DHT22;7952;48.396;12.806;2023-11-19T01:40:50;7.40;59.40
15705;DHT22;7952;48.396;12.806;2023-11-19T01:43:35;7.40;59.40
15705;DHT22;7952;48.396;12.806;2023-11-19T01:46:02;7.40;59.40
15705;DHT22;7952;48.396;12.806;2023-11-19T01:48:37;7.40;59.40
15705;DHT22;7952;48.396;12.806;2023-11-19T01:51:07;7.40;59.40
15705;DHT22;7952;48.396;12.806;2023-11-19T01:53:34;7.40;59.40
15705;DHT22;7952;48.396;12.806;2023-11-19T01:56:03;7.40;59.40
15705;DHT22;7952;48.396;12.806;2023-11-19T01:58:29;7.40;59.40
15705;DHT22;7952;48.396;12.806;2023-11-19T02:00:56;7.50;59.40
15705;DHT22;7952;48.396;12.806;2023-11-19T02:03:23;7.40;59.40
15705;DHT22;7952;48.396;12.806;2023-11-19T02:05:51;7.40;59.40
15705;DHT22;7952;48.396;12.806;2023-11-19T02:08:18;7.50;59.40
15705;DHT22;7952;48.396;12.806;2023-11-19T02:10:44;7.50;59.50
15705;DHT22;7952;48.396;12.806;2023-11-19T02:13:10;7.50;59.40
15705;DHT22;7952;48.396;12.806;2023-11-19T02:15:39;7.50;59.40
15705;DHT22;7952;48.396;12.806;2023-11-19T02:18:22;7.50;59.40
15705;DHT22;7952;48.396;12.806;2023-11-19T02:20:49;7.50;59.40
15705;DHT22;7952;48.396;12.806;2023-11-19T02:23:16;7.50;59.40
15705;DHT22;7952;48.396;12.806;2023-11-19T02:25:43;7.50;59.40
15705;DHT22;7952;48.396;12.806;2023-11-19T02:28:12;7.50;59.40
15705;DHT22;7952;48.396;12.806;2023-11-19T02:30:38;7.50;59.40
15705;DHT22;7952;48.396;12.806;2023-11-19T02:33:04;7.50;59.40
15705;DHT22;7952;48.396;12.806;2023-11-19T02:35:34;7.50;59.40
15705;DHT22;7952;48.396;12.806;2023-11-19T02:38:00;7.50;59.40
15705;DHT22;7952;48.396;12.806;2023-11-19T02:40:32;7.50;59.40
15705;DHT22;7952;48.396;12.806;2023-11-19T02:42:58;7.50;59.40
15705;DHT22;7952;48.396;12.806;2023-11-19T02:45:24;7.50;59.40
15705;DHT22;7952;48.396;12.806;2023-11-19T02:47:51;7.50;59.40
15705;DHT22;7952;48.396;12.806;2023-11-19T02:50:19;7.60;59.50
15705;DHT22;7952;48.396;12.806;2023-11-19T02:52:52;7.60;59.50
15705;DHT22;7952;48.396;12.806;2023-11-19T02:55:18;7.60;59.50
15705;DHT22;7952;48.396;12.806;2023-11-19T02:57:45;7.60;59.50
15705;DHT22;7952;48.396;12.806;2023-11-19T03:00:21;7.60;59.50
15705;DHT22;7952;48.396;12.806;2023-11-19T03:02:53;7.60;59.50
15705;DHT22;7952;48.396;12.806;2023-11-19T03:05:26;7.60;59.50
15705;DHT22;7952;48.396;12.806;2023-11-19T03:07:52;7.60;59.50
15705;DHT22;7952;48.396;12.806;2023-11-19T03:10:18;7.60;59.50
15705;DHT22;7952;48.396;12.806;2023-11-19T03:12:44;7.60;59.50
15705;DHT22;7952;48.396;12.806;2023-11-19T03:15:13;7.60;59.50
15705;DHT22;7952;48.396;12.806;2023-11-19T03:17:40;7.60;59.50
15705;DHT22;7952;48.396;12.806;2023-11-19T03:20:08;7.60;59.50
15705;DHT22;7952;48.396;12.806;2023-11-19T03:22:43;7.60;59.50
15705;DHT22;7952;48.396;12.806;2023-11-19T03:25:12;7.60;59.50
15705;DHT22;7952;48.396;12.806;2023-11-19T03:27:39;7.60;59.50
15705;DHT22;7952;48.396;12.806;2023-11-19T03:30:06;7.60;59.50
15705;DHT22;7952;48.396;12.806;2023-11-19T03:32:32;7.60;59.50
15705;DHT22;7952;48.396;12.806;2023-11-19T03:35:00;7.60;59.50
15705;DHT22;7952;48.396;12.806;2023-11-19T03:37:29;7.70;59.50
15705;DHT22;7952;48.396;12.806;2023-11-19T03:39:54;7.70;59.60
15705;DHT22;7952;48.396;12.806;2023-11-19T03:42:23;7.60;59.50
15705;DHT22;7952;48.396;12.806;2023-11-19T03:44:49;7.70;59.60
15705;DHT22;7952;48.396;12.806;2023-11-19T03:47:15;7.70;59.60
15705;DHT22;7952;48.396;12.806;2023-11-19T03:49:41;7.70;59.60
15705;DHT22;7952;48.396;12.806;2023-11-19T03:52:07;7.70;59.60
15705;DHT22;7952;48.396;12.806;2023-11-19T03:54:34;7.70;59.60
15705;DHT22;7952;48.396;12.806;2023-11-19T03:57:01;7.70;59.60
15705;DHT22;7952;48.396;12.806;2023-11-19T03:59:28;7.80;59.70
15705;DHT22;7952;48.396;12.806;2023-11-19T04:01:54;7.80;59.70
15705;DHT22;7952;48.396;12.806;2023-11-19T04:04:22;7.80;59.60
15705;DHT22;7952;48.396;12.806;2023-11-19T04:06:48;7.80;59.60
15705;DHT22;7952;48.396;12.806;2023-11-19T04:09:14;7.80;59.60
15705;DHT22;7952;48.396;12.806;2023-11-19T04:11:39;7.90;59.70
15705;DHT22;7952;48.396;12.806;2023-11-19T04:14:05;7.90;59.70
15705;DHT22;7952;48.396;12.806;2023-11-19T04:16:31;7.90;59.70
15705;DHT22;7952;48.396;12.806;2023-11-19T04:18:57;7.90;59.60
15705;DHT22;7952;48.396;12.806;2023-11-19T04:21:23;7.90;59.60
15705;DHT22;7952;48.396;12.806;2023-11-19T04:23:49;7.90;59.60
15705;DHT22;7952;48.396;12.806;2023-11-19T04:26:15;7.90;59.60
15705;DHT22;7952;48.396;12.806;2023-11-19T04:28:41;7.90;59.60
15705;DHT22;7952;48.396;12.806;2023-11-19T04:31:07;7.90;59.60
15705;DHT22;7952;48.396;12.806;2023-11-19T04:33:34;7.90;59.60
15705;DHT22;7952;48.396;12.806;2023-11-19T04:36:00;7.90;59.60
15705;DHT22;7952;48.396;12.806;2023-11-19T04:38:26;7.80;59.60
15705;DHT22;7952;48.396;12.806;2023-11-19T04:40:52;7.80;59.60
15705;DHT22;7952;48.396;12.806;2023-11-19T04:43:18;7.80;59.60
15705;DHT22;7952;48.396;12.806;2023-11-19T04:45:46;7.80;59.60
15705;DHT22;7952;48.396;12.806;2023-11-19T04:48:12;7.80;59.60
15705;DHT22;7952;48.396;12.806;2023-11-19T04:50:38;7.80;59.60
15705;DHT22;7952;48.396;12.806;2023-11-19T04:53:03;7.80;59.60
15705;DHT22;7952;48.396;12.806;2023-11-19T04:55:29;7.80;59.70
15705;DHT22;7952;48.396;12.806;2023-11-19T04:57:55;7.80;59.70
15705;DHT22;7952;48.396;12.806;2023-11-19T05:00:21;7.80;59.70
15705;DHT22;7952;48.396;12.806;2023-11-19T05:02:47;7.80;59.70
15705;DHT22;7952;48.396;12.806;2023-11-19T05:05:13;7.80;59.70
15705;DHT22;7952;48.396;12.806;2023-11-19T05:07:38;7.80;59.70
15705;DHT22;7952;48.396;12.806;2023-11-19T05:10:04;7.80;59.70
15705;DHT22;7952;48.396;12.806;2023-11-19T05:12:31;7.80;59.70
15705;DHT22;7952;48.396;12.806;2023-11-19T05:14:57;7.80;59.70
15705;DHT22;7952;48.396;12.806;2023-11-19T05:17:23;7.80;59.70
15705;DHT22;7952;48.396;12.806;2023-11-19T05:19:49;7.80;59.80
15705;DHT22;7952;48.396;12.806;2023-11-19T05:22:15;7.90;59.80
15705;DHT22;7952;48.396;12.806;2023-11-19T05:24:41;7.90;59.80
15705;DHT22;7952;48.396;12.806;2023-11-19T05:27:07;7.90;59.80
15705;DHT22;7952;48.396;12.806;2023-11-19T05:29:33;7.90;59.80
15705;DHT22;7952;48.396;12.806;2023-11-19T05:31:59;7.90;59.80
15705;DHT22;7952;48.396;12.806;2023-11-19T05:34:25;7.90;59.80
15705;DHT22;7952;48.396;12.806;2023-11-19T05:36:50;7.90;59.70
15705;DHT22;7952;48.396;12.806;2023-11-19T05:39:17;7.90;60.30
15705;DHT22;7952;48.396;12.806;2023-11-19T05:41:44;7.90;59.70
15705;DHT22;7952;48.396;12.806;2023-11-19T05:44:10;7.90;59.70
15705;DHT22;7952;48.396;12.806;2023-11-19T05:46:36;8.00;59.70
15705;DHT22;7952;48.396;12.806;2023-11-19T05:49:06;8.00;59.70
15705;DHT22;7952;48.396;12.806;2023-11-19T05:51:31;8.00;59.70
15705;DHT22;7952;48.396;12.806;2023-11-19T05:53:57;8.00;59.70
15705;DHT22;7952;48.396;12.806;2023-11-19T05:56:23;8.00;59.70
15705;DHT22;7952;48.396;12.806;2023-11-19T05:58:49;8.00;59.70
15705;DHT22;7952;48.396;12.806;2023-11-19T06:01:15;8.00;59.70
15705;DHT22;7952;48.396;12.806;2023-11-19T06:03:40;8.00;59.70
15705;DHT22;7952;48.396;12.806;2023-11-19T06:06:08;8.00;59.70
15705;DHT22;7952;48.396;12.806;2023-11-19T06:08:34;8.00;59.70
15705;DHT22;7952;48.396;12.806;2023-11-19T06:11:01;8.00;59.70
15705;DHT22;7952;48.396;12.806;2023-11-19T06:13:27;8.10;59.80
15705;DHT22;7952;48.396;12.806;2023-11-19T06:15:52;8.10;59.80
15705;DHT22;7952;48.396;12.806;2023-11-19T06:18:18;8.10;59.80
15705;DHT22;7952;48.396;12.806;2023-11-19T06:20:45;8.10;59.80
15705;DHT22;7952;48.396;12.806;2023-11-19T06:23:11;8.20;59.90
15705;DHT22;7952;48.396;12.806;2023-11-19T06:25:37;8.20;59.90
15705;DHT22;7952;48.396;12.806;2023-11-19T06:28:03;8.30;59.90
15705;DHT22;7952;48.396;12.806;2023-11-19T06:30:29;8.30;59.90
15705;DHT22;7952;48.396;12.806;2023-11-19T06:32:56;8.30;59.90
15705;DHT22;7952;48.396;12.806;2023-11-19T06:35:22;8.30;59.80
15705;DHT22;7952;48.396;12.806;2023-11-19T06:37:48;8.40;59.80
15705;DHT22;7952;48.396;12.806;2023-11-19T06:40:14;8.40;59.80
15705;DHT22;7952;48.396;12.806;2023-11-19T06:42:41;8.50;59.80
15705;DHT22;7952;48.396;12.806;2023-11-19T06:45:07;8.50;59.80
15705;DHT22;7952;48.396;12.806;2023-11-19T06:47:33;8.50;59.80
15705;DHT22;7952;48.396;12.806;2023-11-19T06:49:58;8.50;59.70
15705;DHT22;7952;48.396;12.806;2023-11-19T06:52:24;8.60;59.80
15705;DHT22;7952;48.396;12.806;2023-11-19T06:54:50;8.60;59.80
15705;DHT22;7952;48.396;12.806;2023-11-19T06:57:16;8.70;60.20
15705;DHT22;7952;48.396;12.806;2023-11-19T06:59:42;8.70;59.90
15705;DHT22;7952;48.396;12.806;2023-11-19T07:02:08;8.70;59.80
15705;DHT22;7952;48.396;12.806;2023-11-19T07:04:34;8.70;59.80
15705;DHT22;7952;48.396;12.806;2023-11-19T07:07:00;8.80;59.90
15705;DHT22;7952;48.396;12.806;2023-11-19T07:09:26;8.80;59.90
15705;DHT22;7952;48.396;12.806;2023-11-19T07:11:52;8.80;59.90
15705;DHT22;7952;48.396;12.806;2023-11-19T07:14:19;8.80;59.80
15705;DHT22;7952;48.396;12.806;2023-11-19T07:16:45;8.90;59.90
15705;DHT22;7952;48.396;12.806;2023-11-19T07:19:11;8.90;59.90
15705;DHT22;7952;48.396;12.806;2023-11-19T07:21:40;8.90;59.90
15705;DHT22;7952;48.396;12.806;2023-11-19T07:24:10;9.00;59.90
15705;DHT22;7952;48.396;12.806;2023-11-19T07:26:36;9.00;59.90
15705;DHT22;7952;48.396;12.806;2023-11-19T07:29:06;9.00;59.90
15705;DHT22;7952;48.396;12.806;2023-11-19T07:31:33;9.10;60.00
15705;DHT22;7952;48.396;12.806;2023-11-19T07:33:58;9.10;60.40
15705;DHT22;7952;48.396;12.806;2023-11-19T07:36:24;9.20;60.00
15705;DHT22;7952;48.396;12.806;2023-11-19T07:38:50;9.20;60.00
15705;DHT22;7952;48.396;12.806;2023-11-19T07:41:16;9.20;60.00
15705;DHT22;7952;48.396;12.806;2023-11-19T07:43:44;9.30;60.00
15705;DHT22;7952;48.396;12.806;2023-11-19T07:46:12;9.40;60.10
15705;DHT22;7952;48.396;12.806;2023-11-19T07:48:41;9.40;60.00
15705;DHT22;7952;48.396;12.806;2023-11-19T07:51:08;9.50;60.10
15705;DHT22;7952;48.396;12.806;2023-11-19T07:53:33;9.50;60.10
15705;DHT22;7952;48.396;12.806;2023-11-19T07:56:00;9.60;60.10
15705;DHT22;7952;48.396;12.806;2023-11-19T07:58:26;9.60;60.00
15705;DHT22;7952;48.396;12.806;2023-11-19T08:00:52;9.70;60.00
15705;DHT22;7952;48.396;12.806;2023-11-19T08:03:18;9.80;60.10
15705;DHT22;7952;48.396;12.806;2023-11-19T08:05:50;9.80;60.00
15705;DHT22;7952;48.396;12.806;2023-11-19T08:08:16;9.90;60.10
15705;DHT22;7952;48.396;12.806;2023-11-19T08:10:42;9.90;60.00
15705;DHT22;7952;48.396;12.806;2023-11-19T08:13:11;10.00;59.10
15705;DHT22;7952;48.396;12.806;2023-11-19T08:15:36;10.00;59.10
15705;DHT22;7952;48.396;12.806;2023-11-19T08:18:02;10.10;59.10
15705;DHT22;7952;48.396;12.806;2023-11-19T08:20:28;10.10;59.10
15705;DHT22;7952;48.396;12.806;2023-11-19T08:22:54;10.20;59.10
15705;DHT22;7952;48.396;12.806;2023-11-19T08:25:20;10.20;59.10
15705;DHT22;7952;48.396;12.806;2023-11-19T08:27:46;10.20;59.10
15705;DHT22;7952;48.396;12.806;2023-11-19T08:30:12;10.30;59.10
15705;DHT22;7952;48.396;12.806;2023-11-19T08:32:38;10.30;59.10
15705;DHT22;7952;48.396;12.806;2023-11-19T08:35:04;10.40;59.10
15705;DHT22;7952;48.396;12.806;2023-11-19T08:37:31;10.40;59.10
15705;DHT22;7952;48.396;12.806;2023-11-19T08:39:56;10.50;59.10
15705;DHT22;7952;48.396;12.806;2023-11-19T08:42:22;10.50;59.10
15705;DHT22;7952;48.396;12.806;2023-11-19T08:44:51;10.60;59.20
15705;DHT22;7952;48.396;12.806;2023-11-19T08:47:20;10.60;59.10
15705;DHT22;7952;48.396;12.806;2023-11-19T08:49:46;10.70;59.20
15705;DHT22;7952;48.396;12.806;2023-11-19T08:52:12;10.70;59.20
15705;DHT22;7952;48.396;12.806;2023-11-19T08:54:37;10.80;59.20
15705;DHT22;7952;48.396;12.806;2023-11-19T08:57:04;10.90;59.30
15705;DHT22;7952;48.396;12.806;2023-11-19T08:59:30;10.90;59.20
15705;DHT22;7952;48.396;12.806;2023-11-19T09:01:56;11.00;59.20
15705;DHT22;7952;48.396;12.806;2023-11-19T09:04:21;11.10;59.30
15705;DHT22;7952;48.396;12.806;2023-11-19T09:06:50;11.10;59.20
15705;DHT22;7952;48.396;12.806;2023-11-19T09:09:16;11.20;59.30
15705;DHT22;7952;48.396;12.806;2023-11-19T09:11:41;11.30;59.30
15705;DHT22;7952;48.396;12.806;2023-11-19T09:14:08;11.30;59.20
15705;DHT22;7952;48.396;12.806;2023-11-19T09:16:33;11.40;59.30
15705;DHT22;7952;48.396;12.806;2023-11-19T09:19:00;11.50;59.30
15705;DHT22;7952;48.396;12.806;2023-11-19T09:21:26;11.60;59.30
15705;DHT22;7952;48.396;12.806;2023-11-19T09:23:52;11.80;59.60
15705;DHT22;7952;48.396;12.806;2023-11-19T09:26:19;11.90;59.60
15705;DHT22;7952;48.396;12.806;2023-11-19T09:28:45;12.10;59.60
15705;DHT22;7952;48.396;12.806;2023-11-19T09:31:17;12.20;60.10
15705;DHT22;7952;48.396;12.806;2023-11-19T09:33:43;12.20;59.40
15705;DHT22;7952;48.396;12.806;2023-11-19T09:36:12;12.30;59.40
15705;DHT22;7952;48.396;12.806;2023-11-19T09:38:42;12.50;59.50
15705;DHT22;7952;48.396;12.806;2023-11-19T09:41:09;12.60;59.50
15705;DHT22;7952;48.396;12.806;2023-11-19T09:47:14;13.10;60.40
15705;DHT22;7952;48.396;12.806;2023-11-19T09:49:41;13.70;61.20
15705;DHT22;7952;48.396;12.806;2023-11-19T09:52:07;14.10;61.40
15705;DHT22;7952;48.396;12.806;2023-11-19T09:54:33;14.60;61.50
15705;DHT22;7952;48.396;12.806;2023-11-19T09:56:59;15.10;61.50
15705;DHT22;7952;48.396;12.806;2023-11-19T09:59:30;15.40;61.20
15705;DHT22;7952;48.396;12.806;2023-11-19T10:01:57;15.60;60.60
15705;DHT22;7952;48.396;12.806;2023-11-19T10:04:23;15.70;60.10
15705;DHT22;7952;48.396;12.806;2023-11-19T10:06:50;15.70;59.90
15705;DHT22;7952;48.396;12.806;2023-11-19T10:09:16;15.70;59.80
15705;DHT22;7952;48.396;12.806;2023-11-19T10:11:42;15.70;59.80
15705;DHT22;7952;48.396;12.806;2023-11-19T10:14:09;15.70;59.70
15705;DHT22;7952;48.396;12.806;2023-11-19T10:16:35;15.60;59.70
15705;DHT22;7952;48.396;12.806;2023-11-19T10:19:00;15.60;59.80
15705;DHT22;7952;48.396;12.806;2023-11-19T10:21:26;15.50;60.30
15705;DHT22;7952;48.396;12.806;2023-11-19T10:23:56;15.40;59.80
15705;DHT22;7952;48.396;12.806;2023-11-19T10:26:25;15.40;60.00
15705;DHT22;7952;48.396;12.806;2023-11-19T10:28:51;15.40;60.10
15705;DHT22;7952;48.396;12.806;2023-11-19T10:31:18;15.50;60.50
15705;DHT22;7952;48.396;12.806;2023-11-19T10:33:45;15.60;60.50
15705;DHT22;7952;48.396;12.806;2023-11-19T10:36:13;15.70;60.60
15705;DHT22;7952;48.396;12.806;2023-11-19T10:38:40;15.80;60.50
15705;DHT22;7952;48.396;12.806;2023-11-19T10:41:07;16.00;60.50
15705;DHT22;7952;48.396;12.806;2023-11-19T10:43:43;16.10;60.50
15705;DHT22;7952;48.396;12.806;2023-11-19T10:46:14;16.20;60.50
15705;DHT22;7952;48.396;12.806;2023-11-19T10:48:40;16.30;60.60
15705;DHT22;7952;48.396;12.806;2023-11-19T10:51:07;16.50;60.40
15705;DHT22;7952;48.396;12.806;2023-11-19T10:53:37;16.50;60.40
15705;DHT22;7952;48.396;12.806;2023-11-19T10:56:06;16.60;60.30
15705;DHT22;7952;48.396;12.806;2023-11-19T10:58:36;16.60;60.20
15705;DHT22;7952;48.396;12.806;2023-11-19T11:01:11;16.60;60.10
15705;DHT22;7952;48.396;12.806;2023-11-19T11:03:40;16.50;60.10
15705;DHT22;7952;48.396;12.806;2023-11-19T11:06:06;16.50;60.10
15705;DHT22;7952;48.396;12.806;2023-11-19T11:08:34;16.40;60.10
15705;DHT22;7952;48.396;12.806;2023-11-19T11:11:02;16.40;60.20
15705;DHT22;7952;48.396;12.806;2023-11-19T11:13:30;16.30;60.30
15705;DHT22;7952;48.396;12.806;2023-11-19T11:15:57;16.30;60.30
15705;DHT22;7952;48.396;12.806;2023-11-19T11:18:24;16.20;60.30
15705;DHT22;7952;48.396;12.806;2023-11-19T11:20:57;16.20;60.40
15705;DHT22;7952;48.396;12.806;2023-11-19T11:29:17;16.10;60.50
15705;DHT22;7952;48.396;12.806;2023-11-19T11:37:32;16.00;60.60
15705;DHT22;7952;48.396;12.806;2023-11-19T11:39:58;16.00;60.70
15705;DHT22;7952;48.396;12.806;2023-11-19T11:42:32;15.90;60.70
15705;DHT22;7952;48.396;12.806;2023-11-19T11:45:08;15.90;60.80
15705;DHT22;7952;48.396;12.806;2023-11-19T11:50:23;15.90;60.80
15705;DHT22;7952;48.396;12.806;2023-11-19T11:55:37;15.80;60.80
15705;DHT22;7952;48.396;12.806;2023-11-19T11:58:35;15.70;60.80
15705;DHT22;7952;48.396;12.806;2023-11-19T12:01:04;15.70;60.80
15705;DHT22;7952;48.396;12.806;2023-11-19T12:03:33;15.70;61.00
15705;DHT22;7952;48.396;12.806;2023-11-19T12:05:59;15.60;61.00
15705;DHT22;7952;48.396;12.806;2023-11-19T12:08:27;15.60;61.10
15705;DHT22;7952;48.396;12.806;2023-11-19T12:10:55;15.60;61.20
15705;DHT22;7952;48.396;12.806;2023-11-19T12:13:24;15.60;61.30
15705;DHT22;7952;48.396;12.806;2023-11-19T12:18:27;15.70;61.50
15705;DHT22;7952;48.396;12.806;2023-11-19T12:20:53;15.80;61.60
15705;DHT22;7952;48.396;12.806;2023-11-19T12:23:19;15.90;61.70
15705;DHT22;7952;48.396;12.806;2023-11-19T12:25:45;15.90;61.60
15705;DHT22;7952;48.396;12.806;2023-11-19T12:28:17;16.00;61.70
15705;DHT22;7952;48.396;12.806;2023-11-19T12:30:45;16.00;61.50
15705;DHT22;7952;48.396;12.806;2023-11-19T12:33:14;16.00;61.50
15705;DHT22;7952;48.396;12.806;2023-11-19T12:35:47;16.00;61.40
15705;DHT22;7952;48.396;12.806;2023-11-19T12:38:24;16.00;61.40
15705;DHT22;7952;48.396;12.806;2023-11-19T12:41:08;16.00;61.30
15705;DHT22;7952;48.396;12.806;2023-11-19T12:43:41;16.00;61.30
15705;DHT22;7952;48.396;12.806;2023-11-19T12:46:28;16.00;61.40
15705;DHT22;7952;48.396;12.806;2023-11-19T12:48:54;15.90;61.30
15705;DHT22;7952;48.396;12.806;2023-11-19T12:51:19;15.90;61.30
15705;DHT22;7952;48.396;12.806;2023-11-19T12:53:52;15.90;61.30
15705;DHT22;7952;48.396;12.806;2023-11-19T12:56:24;15.90;61.30
15705;DHT22;7952;48.396;12.806;2023-11-19T12:58:50;15.90;61.30
15705;DHT22;7952;48.396;12.806;2023-11-19T13:01:20;15.80;61.30
15705;DHT22;7952;48.396;12.806;2023-11-19T13:03:46;15.80;61.30
15705;DHT22;7952;48.396;12.806;2023-11-19T13:06:14;15.80;61.30
15705;DHT22;7952;48.396;12.806;2023-11-19T13:08:48;15.90;61.40
15705;DHT22;7952;48.396;12.806;2023-11-19T13:11:34;15.90;61.40
15705;DHT22;7952;48.396;12.806;2023-11-19T13:14:00;15.90;61.50
15705;DHT22;7952;48.396;12.806;2023-11-19T13:16:27;16.00;61.60
15705;DHT22;7952;48.396;12.806;2023-11-19T13:18:53;16.00;61.50
15705;DHT22;7952;48.396;12.806;2023-11-19T13:21:19;16.10;61.60
15705;DHT22;7952;48.396;12.806;2023-11-19T13:23:45;16.10;61.50
15705;DHT22;7952;48.396;12.806;2023-11-19T13:26:11;16.20;61.50
15705;DHT22;7952;48.396;12.806;2023-11-19T13:28:37;16.30;61.50
15705;DHT22;7952;48.396;12.806;2023-11-19T13:31:04;16.30;61.40
15705;DHT22;7952;48.396;12.806;2023-11-19T13:33:30;16.30;61.30
15705;DHT22;7952;48.396;12.806;2023-11-19T13:35:56;16.30;61.30
15705;DHT22;7952;48.396;12.806;2023-11-19T13:38:22;16.30;61.20
15705;DHT22;7952;48.396;12.806;2023-11-19T13:40:51;16.20;61.10
15705;DHT22;7952;48.396;12.806;2023-11-19T13:43:17;16.20;61.20
15705;DHT22;7952;48.396;12.806;2023-11-19T13:45:43;16.20;61.20
15705;DHT22;7952;48.396;12.806;2023-11-19T13:48:08;16.20;61.20
15705;DHT22;7952;48.396;12.806;2023-11-19T13:50:35;16.10;61.20
15705;DHT22;7952;48.396;12.806;2023-11-19T13:53:00;16.10;61.20
15705;DHT22;7952;48.396;12.806;2023-11-19T13:55:26;16.00;61.20
15705;DHT22;7952;48.396;12.806;2023-11-19T13:57:52;16.00;61.20
15705;DHT22;7952;48.396;12.806;2023-11-19T14:00:18;16.00;61.30
15705;DHT22;7952;48.396;12.806;2023-11-19T14:02:48;16.00;61.30
15705;DHT22;7952;48.396;12.806;2023-11-19T14:05:14;16.00;61.30
15705;DHT22;7952;48.396;12.806;2023-11-19T14:07:43;16.00;61.30
15705;DHT22;7952;48.396;12.806;2023-11-19T14:10:09;16.00;61.20
15705;DHT22;7952;48.396;12.806;2023-11-19T14:12:37;16.00;61.20
15705;DHT22;7952;48.396;12.806;2023-11-19T14:15:07;15.90;61.10
15705;DHT22;7952;48.396;12.806;2023-11-19T14:17:33;15.90;61.20
15705;DHT22;7952;48.396;12.806;2023-11-19T14:20:00;15.80;61.10
15705;DHT22;7952;48.396;12.806;2023-11-19T14:22:25;15.80;61.20
15705;DHT22;7952;48.396;12.806;2023-11-19T14:24:51;15.70;61.10
15705;DHT22;7952;48.396;12.806;2023-11-19T14:27:17;15.70;61.10
15705;DHT22;7952;48.396;12.806;2023-11-19T14:29:43;15.70;61.80
15705;DHT22;7952;48.396;12.806;2023-11-19T14:32:10;15.70;61.90
15705;DHT22;7952;48.396;12.806;2023-11-19T14:34:36;15.60;61.20
15705;DHT22;7952;48.396;12.806;2023-11-19T14:37:02;15.60;61.20
15705;DHT22;7952;48.396;12.806;2023-11-19T14:39:28;15.60;61.30
15705;DHT22;7952;48.396;12.806;2023-11-19T14:41:57;15.60;61.30
15705;DHT22;7952;48.396;12.806;2023-11-19T14:44:27;15.50;61.20
15705;DHT22;7952;48.396;12.806;2023-11-19T14:46:52;15.50;61.20
15705;DHT22;7952;48.396;12.806;2023-11-19T14:49:18;15.50;61.20
15705;DHT22;7952;48.396;12.806;2023-11-19T14:51:44;15.50;61.30
15705;DHT22;7952;48.396;12.806;2023-11-19T14:54:10;15.50;61.30
15705;DHT22;7952;48.396;12.806;2023-11-19T14:56:35;15.40;61.20
15705;DHT22;7952;48.396;12.806;2023-11-19T14:59:01;15.40;61.20
15705;DHT22;7952;48.396;12.806;2023-11-19T15:01:27;15.40;61.30
15705;DHT22;7952;48.396;12.806;2023-11-19T15:03:54;15.40;61.20
15705;DHT22;7952;48.396;12.806;2023-11-19T15:06:24;15.40;61.30
15705;DHT22;7952;48.396;12.806;2023-11-19T15:08:52;15.30;61.80
15705;DHT22;7952;48.396;12.806;2023-11-19T15:11:18;15.30;61.20
15705;DHT22;7952;48.396;12.806;2023-11-19T15:13:44;15.30;61.20
15705;DHT22;7952;48.396;12.806;2023-11-19T15:16:09;15.20;61.80
15705;DHT22;7952;48.396;12.806;2023-11-19T15:18:40;15.20;61.20
15705;DHT22;7952;48.396;12.806;2023-11-19T15:21:06;15.10;61.10
15705;DHT22;7952;48.396;12.806;2023-11-19T15:23:32;15.10;61.20
15705;DHT22;7952;48.396;12.806;2023-11-19T15:25:58;15.10;61.20
15705;DHT22;7952;48.396;12.806;2023-11-19T15:28:24;15.00;61.20
15705;DHT22;7952;48.396;12.806;2023-11-19T15:30:49;14.90;61.20
15705;DHT22;7952;48.396;12.806;2023-11-19T15:33:15;14.90;61.20
15705;DHT22;7952;48.396;12.806;2023-11-19T15:35:41;14.80;61.20
15705;DHT22;7952;48.396;12.806;2023-11-19T15:38:07;14.80;61.30
15705;DHT22;7952;48.396;12.806;2023-11-19T15:40:35;14.80;61.40
15705;DHT22;7952;48.396;12.806;2023-11-19T15:43:03;14.70;61.40
15705;DHT22;7952;48.396;12.806;2023-11-19T15:45:29;14.70;61.50
15705;DHT22;7952;48.396;12.806;2023-11-19T15:47:55;14.70;61.50
15705;DHT22;7952;48.396;12.806;2023-11-19T15:50:21;14.70;61.50
15705;DHT22;7952;48.396;12.806;2023-11-19T15:52:46;14.60;61.50
15705;DHT22;7952;48.396;12.806;2023-11-19T15:55:13;14.70;61.60
15705;DHT22;7952;48.396;12.806;2023-11-19T15:57:39;14.70;61.60
15705;DHT22;7952;48.396;12.806;2023-11-19T16:00:05;14.70;61.60
15705;DHT22;7952;48.396;12.806;2023-11-19T16:02:31;14.70;61.50